Aérodrome :
LOGIN :

S'inscrire | Disclaimer

   EN    FR    IT 

 










Légende :    VFR   VFR Marginal   IFR   IFR Intensif   IFR Très Intensif
Visi : 
Plafond : 
>= 8 km
>= 3000ft
5 à 8 km
1000 à 3000 ft
1500m à 5 km
500 à 1000 ft
800 à 1500m
200 à 500 ft
< 800m
< 200 ft
Symboles :   Orages  Brouillard  Fortes neiges  Fortes précipitations  Vent > 20 kt
SIGMETs :   Divers  Orages  Givrage  Turbulence  Onde Orograph.  Cendres Volcan.






- Altitude de l'aérodrome : 33 ft
- Code IATA : MHZ


EGUN - RAF Mildenhall

DERNIER METAR :
  • 281255Z 16013G29KT 8000 -RA SCT018 BKN030 05/03 A2981 RMK AO2A RAB45 SLPNO WND DATA ESTMD ALSTG ESTMD RVRNO

METARs EXPIRÉS :
  • 281157Z 17016G24KT 9999 SCT020 OVC030 05/03 A2968 RMK AO2A SLPNO WND DATA ESTMD ALSTG ESTMD RVRNO
  • 281149Z 17017G24KT 9999 BKN020 05/03 A2968 RMK AO2A SLPNO WND DATA ESTMD ALSTG ESTMD RVRNO
  • 281055Z 16014G18KT 9000 -RA FEW023 SCT027 OVC033 05/02 A2975 RMK AO2A SLP072 WND DATA ESTMD ALSTG/SLP ESTMD P0002 RVRNO

TAF TAF EGUN
Valide du 28 à 12h jusqu'au 29 à 18h UTC


281200Z 2812/2918 18015G25KT 8000 -SHRA OVC025 510005 QNH2930INS
TEMPO 2812/2818 20020G30KT OVC010
BECMG 2822/2823 22020G30KT 9999 NSW OVC015 510005 QNH2905INS
BECMG 2904/2905 21025G35KT 9999 OVC010 520005 QNH2899INS
BECMG 2906/2907 19030G40KT 9000 -RA BKN015 OVC020 530005 QNH2895INS
BECMG 2909/2910 24025G35KT 9999 NSW SCT020 510005 QNH2899INS TX10/2821Z TN04/2906Z



MET'MAP, la Météo Aéronautique d'un coup d'oeil ! - Copyright ORBIFLY Décembre 2007 - Disclaimer

ORBIFLY MET'MAP TEAM :

Programmation & Développement : Alexandra Zaïnal
Sur une idée originale de : Baudouin d'Aumeries
Assistance à la programmation : Marc-Olivier Méhu
Soutien technique & logistique : Manuel Goepfert

Contact : metmap@orbifly.com




SOURCES & CREDITS :

   NOAA